sensor_id;sensor_type;location;lat;lon;timestamp;pressure;altitude;pressure_sealevel;temperature;humidity
63194;BME280;49289;51.670;5.624;2023-07-02T00:00:30;100841.86;;;24.23;58.92
63194;BME280;49289;51.670;5.624;2023-07-02T00:02:17;100841.20;;;23.65;60.18
63194;BME280;49289;51.670;5.624;2023-07-02T00:04:06;100836.97;;;24.48;58.74
63194;BME280;49289;51.670;5.624;2023-07-02T00:05:54;100828.91;;;23.89;59.33
63194;BME280;49289;51.670;5.624;2023-07-02T00:07:42;100800.91;;;24.41;58.35
63194;BME280;49289;51.670;5.624;2023-07-02T00:09:30;100825.30;;;24.38;58.55
63194;BME280;49289;51.670;5.624;2023-07-02T00:11:18;100824.44;;;24.02;59.83
63194;BME280;49289;51.670;5.624;2023-07-02T00:13:08;100808.73;;;23.94;59.71
63194;BME280;49289;51.670;5.624;2023-07-02T00:14:55;100819.26;;;23.57;60.77
63194;BME280;49289;51.670;5.624;2023-07-02T00:16:43;100823.23;;;24.06;59.88
63194;BME280;49289;51.670;5.624;2023-07-02T00:18:29;100814.62;;;23.56;61.19
63194;BME280;49289;51.670;5.624;2023-07-02T00:20:18;100801.33;;;24.00;60.10
63194;BME280;49289;51.670;5.624;2023-07-02T00:22:07;100790.06;;;24.15;58.68
63194;BME280;49289;51.670;5.624;2023-07-02T00:23:54;100792.77;;;24.13;59.02
63194;BME280;49289;51.670;5.624;2023-07-02T00:25:41;100790.60;;;24.12;58.97
63194;BME280;49289;51.670;5.624;2023-07-02T00:27:28;100801.46;;;23.92;59.94
63194;BME280;49289;51.670;5.624;2023-07-02T00:29:16;100804.98;;;24.05;59.42
63194;BME280;49289;51.670;5.624;2023-07-02T00:31:05;100808.55;;;24.07;59.06
63194;BME280;49289;51.670;5.624;2023-07-02T00:32:52;100819.41;;;24.02;59.07
63194;BME280;49289;51.670;5.624;2023-07-02T00:34:39;100795.66;;;23.64;59.19
63194;BME280;49289;51.670;5.624;2023-07-02T00:36:26;100818.30;;;24.30;58.53
63194;BME280;49289;51.670;5.624;2023-07-02T00:38:13;100827.61;;;24.11;58.88
63194;BME280;49289;51.670;5.624;2023-07-02T00:40:00;100805.16;;;23.44;60.35
63194;BME280;49289;51.670;5.624;2023-07-02T00:41:48;100808.81;;;23.31;60.95
63194;BME280;49289;51.670;5.624;2023-07-02T00:43:37;100836.87;;;22.97;62.12
63194;BME280;49289;51.670;5.624;2023-07-02T00:45:25;100832.45;;;23.42;62.13
63194;BME280;49289;51.670;5.624;2023-07-02T00:47:13;100840.50;;;22.94;62.93
63194;BME280;49289;51.670;5.624;2023-07-02T00:49:00;100835.45;;;22.96;63.48
63194;BME280;49289;51.670;5.624;2023-07-02T00:50:47;100840.78;;;23.33;62.29
63194;BME280;49289;51.670;5.624;2023-07-02T00:52:34;100836.92;;;23.43;62.15
63194;BME280;49289;51.670;5.624;2023-07-02T00:54:23;100839.39;;;23.69;60.54
63194;BME280;49289;51.670;5.624;2023-07-02T00:56:11;100842.22;;;23.32;62.05
63194;BME280;49289;51.670;5.624;2023-07-02T00:57:59;100822.50;;;23.59;60.94
63194;BME280;49289;51.670;5.624;2023-07-02T00:59:47;100845.30;;;23.58;60.79
63194;BME280;49289;51.670;5.624;2023-07-02T01:01:34;100844.14;;;23.91;60.64
63194;BME280;49289;51.670;5.624;2023-07-02T01:03:21;100844.25;;;23.23;61.13
63194;BME280;49289;51.670;5.624;2023-07-02T01:05:08;100838.98;;;23.06;62.76
63194;BME280;49289;51.670;5.624;2023-07-02T01:06:55;100845.80;;;23.34;62.11
63194;BME280;49289;51.670;5.624;2023-07-02T01:08:43;100798.75;;;23.32;61.42
63194;BME280;49289;51.670;5.624;2023-07-02T01:10:31;100849.42;;;23.22;61.83
63194;BME280;49289;51.670;5.624;2023-07-02T01:12:20;100832.27;;;23.46;61.70
63194;BME280;49289;51.670;5.624;2023-07-02T01:14:08;100856.55;;;22.95;61.81
63194;BME280;49289;51.670;5.624;2023-07-02T01:15:56;100856.25;;;23.17;62.89
63194;BME280;49289;51.670;5.624;2023-07-02T01:17:44;100855.66;;;23.19;61.31
63194;BME280;49289;51.670;5.624;2023-07-02T01:19:38;100830.55;;;23.49;60.78
63194;BME280;49289;51.670;5.624;2023-07-02T01:21:26;100862.68;;;23.01;62.62
63194;BME280;49289;51.670;5.624;2023-07-02T01:23:14;100834.81;;;22.85;64.02
63194;BME280;49289;51.670;5.624;2023-07-02T01:25:01;100835.83;;;23.43;61.84
63194;BME280;49289;51.670;5.624;2023-07-02T01:26:48;100858.97;;;23.71;60.40
63194;BME280;49289;51.670;5.624;2023-07-02T01:28:41;100864.37;;;23.00;62.79
63194;BME280;49289;51.670;5.624;2023-07-02T01:30:27;100840.02;;;23.41;61.83
63194;BME280;49289;51.670;5.624;2023-07-02T01:32:16;100864.78;;;23.45;61.33
63194;BME280;49289;51.670;5.624;2023-07-02T01:34:03;100865.84;;;23.38;61.97
63194;BME280;49289;51.670;5.624;2023-07-02T01:35:51;100870.66;;;22.99;63.80
63194;BME280;49289;51.670;5.624;2023-07-02T01:37:39;100872.92;;;22.75;64.90
63194;BME280;49289;51.670;5.624;2023-07-02T01:39:28;100875.07;;;22.82;65.01
63194;BME280;49289;51.670;5.624;2023-07-02T01:41:16;100855.84;;;22.47;64.96
63194;BME280;49289;51.670;5.624;2023-07-02T01:43:04;100859.36;;;22.45;65.92
63194;BME280;49289;51.670;5.624;2023-07-02T01:44:52;100864.88;;;22.16;66.24
63194;BME280;49289;51.670;5.624;2023-07-02T01:46:39;100881.05;;;22.65;65.85
63194;BME280;49289;51.670;5.624;2023-07-02T01:48:26;100878.69;;;23.18;64.17
63194;BME280;49289;51.670;5.624;2023-07-02T01:50:15;100881.58;;;23.73;61.71
63194;BME280;49289;51.670;5.624;2023-07-02T01:52:03;100881.16;;;23.55;61.35
63194;BME280;49289;51.670;5.624;2023-07-02T01:53:49;100879.44;;;23.29;62.60
63194;BME280;49289;51.670;5.624;2023-07-02T01:55:36;100882.55;;;23.69;61.62
63194;BME280;49289;51.670;5.624;2023-07-02T01:57:25;100878.21;;;23.80;60.88
63194;BME280;49289;51.670;5.624;2023-07-02T01:59:13;100879.27;;;24.21;59.72
63194;BME280;49289;51.670;5.624;2023-07-02T02:01:01;100876.67;;;23.82;60.75
63194;BME280;49289;51.670;5.624;2023-07-02T02:02:48;100853.22;;;23.51;61.18
63194;BME280;49289;51.670;5.624;2023-07-02T02:04:35;100858.86;;;23.41;61.78
63194;BME280;49289;51.670;5.624;2023-07-02T02:06:22;100857.37;;;23.32;61.57
63194;BME280;49289;51.670;5.624;2023-07-02T02:08:10;100879.81;;;23.26;62.14
63194;BME280;49289;51.670;5.624;2023-07-02T02:09:58;100881.59;;;23.65;61.76
63194;BME280;49289;51.670;5.624;2023-07-02T02:11:48;100881.98;;;23.50;61.28
63194;BME280;49289;51.670;5.624;2023-07-02T02:13:34;100879.59;;;23.36;62.42
63194;BME280;49289;51.670;5.624;2023-07-02T02:15:22;100881.59;;;23.38;62.23
63194;BME280;49289;51.670;5.624;2023-07-02T02:17:09;100873.12;;;23.57;61.56
63194;BME280;49289;51.670;5.624;2023-07-02T02:18:56;100878.44;;;23.45;62.09
63194;BME280;49289;51.670;5.624;2023-07-02T02:20:43;100859.95;;;23.58;61.22
63194;BME280;49289;51.670;5.624;2023-07-02T02:22:30;100881.55;;;24.20;60.35
63194;BME280;49289;51.670;5.624;2023-07-02T02:24:18;100886.23;;;24.04;60.03
63194;BME280;49289;51.670;5.624;2023-07-02T02:26:05;100859.11;;;23.99;59.46
63194;BME280;49289;51.670;5.624;2023-07-02T02:27:52;100881.63;;;23.75;60.34
63194;BME280;49289;51.670;5.624;2023-07-02T02:29:39;100857.03;;;24.06;59.46
63194;BME280;49289;51.670;5.624;2023-07-02T02:31:27;100861.25;;;24.40;58.47
63194;BME280;49289;51.670;5.624;2023-07-02T02:33:16;100879.12;;;24.68;57.68
63194;BME280;49289;51.670;5.624;2023-07-02T02:35:04;100856.96;;;24.28;58.00
63194;BME280;49289;51.670;5.624;2023-07-02T02:36:52;100880.41;;;24.32;58.42
63194;BME280;49289;51.670;5.624;2023-07-02T02:38:40;100887.87;;;24.32;58.37
63194;BME280;49289;51.670;5.624;2023-07-02T02:40:27;100889.08;;;24.43;57.85
63194;BME280;49289;51.670;5.624;2023-07-02T02:42:15;100894.28;;;24.15;58.69
63194;BME280;49289;51.670;5.624;2023-07-02T02:44:03;100899.26;;;23.48;60.71
63194;BME280;49289;51.670;5.624;2023-07-02T02:45:51;100901.41;;;23.49;60.81
63194;BME280;49289;51.670;5.624;2023-07-02T02:47:38;100897.62;;;23.45;61.24
63194;BME280;49289;51.670;5.624;2023-07-02T02:49:25;100882.92;;;23.47;60.87
63194;BME280;49289;51.670;5.624;2023-07-02T02:51:12;100902.56;;;23.41;60.79
63194;BME280;49289;51.670;5.624;2023-07-02T02:52:59;100899.23;;;23.40;61.51
63194;BME280;49289;51.670;5.624;2023-07-02T02:54:49;100899.78;;;23.28;61.24
63194;BME280;49289;51.670;5.624;2023-07-02T02:56:35;100899.07;;;22.95;61.33
63194;BME280;49289;51.670;5.624;2023-07-02T02:58:24;100899.17;;;23.48;60.91
63194;BME280;49289;51.670;5.624;2023-07-02T03:00:12;100902.14;;;23.63;59.70
63194;BME280;49289;51.670;5.624;2023-07-02T03:02:00;100903.53;;;23.57;59.10
63194;BME280;49289;51.670;5.624;2023-07-02T03:03:47;100880.22;;;22.64;60.84
63194;BME280;49289;51.670;5.624;2023-07-02T03:05:35;100904.21;;;22.91;60.35
63194;BME280;49289;51.670;5.624;2023-07-02T03:07:24;100906.45;;;23.13;59.00
63194;BME280;49289;51.670;5.624;2023-07-02T03:09:12;100913.55;;;22.56;59.93
63194;BME280;49289;51.670;5.624;2023-07-02T03:11:00;100911.72;;;22.82;59.52
63194;BME280;49289;51.670;5.624;2023-07-02T03:12:47;100917.64;;;22.80;58.46
63194;BME280;49289;51.670;5.624;2023-07-02T03:14:34;100918.02;;;22.83;57.66
63194;BME280;49289;51.670;5.624;2023-07-02T03:16:21;100935.13;;;22.70;56.82
63194;BME280;49289;51.670;5.624;2023-07-02T03:18:08;100911.37;;;22.46;56.54
63194;BME280;49289;51.670;5.624;2023-07-02T03:19:55;100931.58;;;22.92;55.72
63194;BME280;49289;51.670;5.624;2023-07-02T03:21:44;100931.53;;;22.80;55.60
63194;BME280;49289;51.670;5.624;2023-07-02T03:23:32;100927.45;;;23.02;55.35
63194;BME280;49289;51.670;5.624;2023-07-02T03:25:20;100929.45;;;22.86;55.02
63194;BME280;49289;51.670;5.624;2023-07-02T03:27:07;100934.33;;;22.67;55.27
63194;BME280;49289;51.670;5.624;2023-07-02T03:28:55;100934.74;;;22.76;55.33
63194;BME280;49289;51.670;5.624;2023-07-02T03:30:43;100931.14;;;22.24;55.38
63194;BME280;49289;51.670;5.624;2023-07-02T03:32:31;100937.19;;;22.49;56.05
63194;BME280;49289;51.670;5.624;2023-07-02T03:34:19;100940.96;;;22.63;55.10
63194;BME280;49289;51.670;5.624;2023-07-02T03:36:06;100942.25;;;22.37;55.16
63194;BME280;49289;51.670;5.624;2023-07-02T03:37:53;100935.03;;;22.81;55.15
63194;BME280;49289;51.670;5.624;2023-07-02T03:39:40;100947.70;;;22.77;54.44
63194;BME280;49289;51.670;5.624;2023-07-02T03:41:28;100947.42;;;22.88;53.90
63194;BME280;49289;51.670;5.624;2023-07-02T03:43:17;100947.30;;;23.21;53.09
63194;BME280;49289;51.670;5.624;2023-07-02T03:45:05;100949.33;;;23.31;52.42
63194;BME280;49289;51.670;5.624;2023-07-02T03:46:53;100936.77;;;23.03;53.29
63194;BME280;49289;51.670;5.624;2023-07-02T03:48:41;100953.02;;;22.58;54.05
63194;BME280;49289;51.670;5.624;2023-07-02T03:50:27;100956.91;;;22.77;53.44
63194;BME280;49289;51.670;5.624;2023-07-02T03:52:14;100957.11;;;22.57;53.51
63194;BME280;49289;51.670;5.624;2023-07-02T03:54:02;100962.92;;;22.35;53.86
63194;BME280;49289;51.670;5.624;2023-07-02T03:55:50;100961.45;;;22.30;54.44
63194;BME280;49289;51.670;5.624;2023-07-02T03:57:37;100958.84;;;22.14;54.05
63194;BME280;49289;51.670;5.624;2023-07-02T03:59:24;100960.38;;;22.45;54.25
63194;BME280;49289;51.670;5.624;2023-07-02T04:01:13;100961.88;;;22.73;53.43
63194;BME280;49289;51.670;5.624;2023-07-02T04:03:01;100966.17;;;22.53;53.37
63194;BME280;49289;51.670;5.624;2023-07-02T04:04:49;100968.81;;;22.92;52.69
63194;BME280;49289;51.670;5.624;2023-07-02T04:06:38;100964.74;;;23.11;52.33
63194;BME280;49289;51.670;5.624;2023-07-02T04:08:25;100953.92;;;23.40;51.70
63194;BME280;49289;51.670;5.624;2023-07-02T04:10:13;100933.22;;;22.95;51.32
63194;BME280;49289;51.670;5.624;2023-07-02T04:12:01;100957.76;;;23.26;51.22
63194;BME280;49289;51.670;5.624;2023-07-02T04:13:49;100956.96;;;23.56;50.49
63194;BME280;49289;51.670;5.624;2023-07-02T04:15:36;100932.31;;;23.02;50.78
63194;BME280;49289;51.670;5.624;2023-07-02T04:17:23;100961.42;;;23.54;50.45
63194;BME280;49289;51.670;5.624;2023-07-02T04:19:10;100938.00;;;23.61;49.95
63194;BME280;49289;51.670;5.624;2023-07-02T04:20:57;100940.83;;;23.79;49.57
63194;BME280;49289;51.670;5.624;2023-07-02T04:22:46;100969.51;;;23.87;49.20
63194;BME280;49289;51.670;5.624;2023-07-02T04:24:34;100968.36;;;23.68;49.69
63194;BME280;49289;51.670;5.624;2023-07-02T04:26:22;100963.57;;;23.76;49.18
63194;BME280;49289;51.670;5.624;2023-07-02T04:28:10;100966.88;;;23.42;49.29
63194;BME280;49289;51.670;5.624;2023-07-02T04:29:58;100967.23;;;23.72;48.70
63194;BME280;49289;51.670;5.624;2023-07-02T04:31:46;100970.68;;;23.87;48.54
63194;BME280;49289;51.670;5.624;2023-07-02T04:33:35;100977.08;;;23.81;48.41
63194;BME280;49289;51.670;5.624;2023-07-02T04:35:23;100956.41;;;23.46;48.38
63194;BME280;49289;51.670;5.624;2023-07-02T04:37:11;100957.86;;;23.71;48.28
63194;BME280;49289;51.670;5.624;2023-07-02T04:38:59;100981.50;;;23.56;48.02
63194;BME280;49289;51.670;5.624;2023-07-02T04:40:47;100981.17;;;23.37;48.09
63194;BME280;49289;51.670;5.624;2023-07-02T04:42:34;100977.34;;;23.15;48.84
63194;BME280;49289;51.670;5.624;2023-07-02T04:44:22;100984.39;;;23.26;48.69
63194;BME280;49289;51.670;5.624;2023-07-02T04:46:11;100966.02;;;23.47;48.74
63194;BME280;49289;51.670;5.624;2023-07-02T04:47:58;100964.69;;;23.46;48.65
63194;BME280;49289;51.670;5.624;2023-07-02T04:49:45;100966.95;;;23.46;47.92
63194;BME280;49289;51.670;5.624;2023-07-02T04:51:33;100984.09;;;23.19;48.16
63194;BME280;49289;51.670;5.624;2023-07-02T04:53:22;100988.41;;;23.25;48.46
63194;BME280;49289;51.670;5.624;2023-07-02T04:55:10;100991.52;;;23.12;49.03
63194;BME280;49289;51.670;5.624;2023-07-02T04:56:57;100987.42;;;23.21;49.04
63194;BME280;49289;51.670;5.624;2023-07-02T04:58:45;100992.97;;;23.30;48.90
63194;BME280;49289;51.670;5.624;2023-07-02T05:00:33;100991.02;;;23.44;48.92
63194;BME280;49289;51.670;5.624;2023-07-02T05:02:20;100993.88;;;23.62;48.27
63194;BME280;49289;51.670;5.624;2023-07-02T05:04:08;100997.11;;;23.53;48.60
63194;BME280;49289;51.670;5.624;2023-07-02T05:05:54;100983.55;;;23.04;49.07
63194;BME280;49289;51.670;5.624;2023-07-02T05:07:41;101001.50;;;23.10;49.51
63194;BME280;49289;51.670;5.624;2023-07-02T05:09:30;101006.84;;;22.98;50.12
63194;BME280;49289;51.670;5.624;2023-07-02T05:11:18;101001.11;;;22.73;50.57
63194;BME280;49289;51.670;5.624;2023-07-02T05:13:05;100985.11;;;22.95;50.35
63194;BME280;49289;51.670;5.624;2023-07-02T05:14:53;100990.75;;;22.43;51.17
63194;BME280;49289;51.670;5.624;2023-07-02T05:16:40;100987.48;;;22.44;51.02
63194;BME280;49289;51.670;5.624;2023-07-02T05:18:27;101011.33;;;22.92;50.81
63194;BME280;49289;51.670;5.624;2023-07-02T05:20:16;101011.35;;;22.89;50.23
63194;BME280;49289;51.670;5.624;2023-07-02T05:22:03;101014.77;;;22.90;50.28
63194;BME280;49289;51.670;5.624;2023-07-02T05:23:51;101017.07;;;22.65;50.40
63194;BME280;49289;51.670;5.624;2023-07-02T05:25:40;101022.66;;;22.49;50.78
63194;BME280;49289;51.670;5.624;2023-07-02T05:27:28;101020.86;;;22.73;50.81
63194;BME280;49289;51.670;5.624;2023-07-02T05:29:16;101022.42;;;22.47;50.27
63194;BME280;49289;51.670;5.624;2023-07-02T05:31:03;101023.87;;;22.14;50.97
63194;BME280;49289;51.670;5.624;2023-07-02T05:32:50;101029.11;;;22.42;50.60
63194;BME280;49289;51.670;5.624;2023-07-02T05:34:37;101029.08;;;21.92;50.87
63194;BME280;49289;51.670;5.624;2023-07-02T05:36:24;101027.09;;;21.61;51.13
63194;BME280;49289;51.670;5.624;2023-07-02T05:38:11;101034.56;;;22.38;50.67
63194;BME280;49289;51.670;5.624;2023-07-02T05:39:59;101033.75;;;22.72;49.52
63194;BME280;49289;51.670;5.624;2023-07-02T05:41:47;101035.97;;;22.78;48.87
63194;BME280;49289;51.670;5.624;2023-07-02T05:43:36;101018.39;;;22.67;48.47
63194;BME280;49289;51.670;5.624;2023-07-02T05:45:24;101040.27;;;22.73;48.61
63194;BME280;49289;51.670;5.624;2023-07-02T05:47:12;101019.42;;;22.39;48.75
63194;BME280;49289;51.670;5.624;2023-07-02T05:49:00;101044.55;;;22.05;49.59
63194;BME280;49289;51.670;5.624;2023-07-02T05:50:47;101048.02;;;23.03;48.59
63194;BME280;49289;51.670;5.624;2023-07-02T05:52:34;101049.36;;;22.59;48.75
63194;BME280;49289;51.670;5.624;2023-07-02T05:54:21;101045.86;;;22.85;48.33
63194;BME280;49289;51.670;5.624;2023-07-02T05:56:09;101048.10;;;22.45;48.70
63194;BME280;49289;51.670;5.624;2023-07-02T05:57:57;101043.19;;;22.03;49.68
63194;BME280;49289;51.670;5.624;2023-07-02T05:59:45;101051.59;;;22.26;49.30
63194;BME280;49289;51.670;5.624;2023-07-02T06:01:33;101056.82;;;22.76;48.93
63194;BME280;49289;51.670;5.624;2023-07-02T06:03:20;101027.93;;;22.67;48.54
63194;BME280;49289;51.670;5.624;2023-07-02T06:05:09;101033.35;;;22.30;49.14
63194;BME280;49289;51.670;5.624;2023-07-02T06:06:56;101055.08;;;21.88;50.71
63194;BME280;49289;51.670;5.624;2023-07-02T06:08:43;101058.32;;;22.64;49.77
63194;BME280;49289;51.670;5.624;2023-07-02T06:10:30;101056.16;;;22.84;48.43
63194;BME280;49289;51.670;5.624;2023-07-02T06:12:20;101040.80;;;22.22;49.68
63194;BME280;49289;51.670;5.624;2023-07-02T06:14:05;101063.41;;;22.79;49.06
63194;BME280;49289;51.670;5.624;2023-07-02T06:15:52;101063.77;;;22.33;49.57
63194;BME280;49289;51.670;5.624;2023-07-02T06:17:39;101068.67;;;22.40;50.02
63194;BME280;49289;51.670;5.624;2023-07-02T06:19:26;101068.13;;;22.54;49.41
63194;BME280;49289;51.670;5.624;2023-07-02T06:21:13;101075.65;;;22.56;49.04
63194;BME280;49289;51.670;5.624;2023-07-02T06:23:00;101050.17;;;21.64;50.37
63194;BME280;49289;51.670;5.624;2023-07-02T06:24:48;101072.97;;;22.05;50.28
63194;BME280;49289;51.670;5.624;2023-07-02T06:26:37;101074.33;;;22.52;50.16
63194;BME280;49289;51.670;5.624;2023-07-02T06:28:25;101051.25;;;22.51;49.33
63194;BME280;49289;51.670;5.624;2023-07-02T06:30:13;101074.67;;;22.17;49.51
63194;BME280;49289;51.670;5.624;2023-07-02T06:32:00;101076.52;;;21.97;49.85
63194;BME280;49289;51.670;5.624;2023-07-02T06:33:50;101078.47;;;22.09;50.07
63194;BME280;49289;51.670;5.624;2023-07-02T06:35:37;101086.44;;;22.86;48.63
63194;BME280;49289;51.670;5.624;2023-07-02T06:37:24;101056.45;;;22.90;48.38
63194;BME280;49289;51.670;5.624;2023-07-02T06:39:12;101067.52;;;22.87;47.34
63194;BME280;49289;51.670;5.624;2023-07-02T06:41:00;101061.49;;;22.44;47.91
63194;BME280;49289;51.670;5.624;2023-07-02T06:42:49;101070.16;;;22.25;47.67
63194;BME280;49289;51.670;5.624;2023-07-02T06:44:37;101084.56;;;22.45;47.31
63194;BME280;49289;51.670;5.624;2023-07-02T06:46:25;101087.14;;;22.94;46.95
63194;BME280;49289;51.670;5.624;2023-07-02T06:48:13;101066.49;;;22.14;46.83
63194;BME280;49289;51.670;5.624;2023-07-02T06:50:01;101064.34;;;21.60;47.74
63194;BME280;49289;51.670;5.624;2023-07-02T06:51:49;101073.12;;;22.09;46.60
63194;BME280;49289;51.670;5.624;2023-07-02T06:53:37;101087.56;;;21.77;46.53
63194;BME280;49289;51.670;5.624;2023-07-02T06:55:24;101093.85;;;22.07;47.18
63194;BME280;49289;51.670;5.624;2023-07-02T06:57:12;101096.67;;;22.04;46.62
63194;BME280;49289;51.670;5.624;2023-07-02T06:59:00;101098.25;;;22.24;46.59
63194;BME280;49289;51.670;5.624;2023-07-02T07:00:49;101081.14;;;21.89;46.84
63194;BME280;49289;51.670;5.624;2023-07-02T07:02:37;101104.63;;;21.86;47.55
63194;BME280;49289;51.670;5.624;2023-07-02T07:04:25;101087.63;;;22.28;47.00
63194;BME280;49289;51.670;5.624;2023-07-02T07:06:12;101111.59;;;23.19;46.12
63194;BME280;49289;51.670;5.624;2023-07-02T07:07:59;101104.50;;;22.30;46.69
63194;BME280;49289;51.670;5.624;2023-07-02T07:09:46;101118.98;;;22.04;48.33
63194;BME280;49289;51.670;5.624;2023-07-02T07:11:33;101122.07;;;21.75;48.76
63194;BME280;49289;51.670;5.624;2023-07-02T07:13:20;101113.13;;;22.16;48.41
63194;BME280;49289;51.670;5.624;2023-07-02T07:15:08;101125.64;;;22.61;48.51
63194;BME280;49289;51.670;5.624;2023-07-02T07:16:56;101101.33;;;22.30;48.41
63194;BME280;49289;51.670;5.624;2023-07-02T07:18:43;101119.39;;;22.57;47.80
63194;BME280;49289;51.670;5.624;2023-07-02T07:20:30;101121.05;;;22.22;48.96
63194;BME280;49289;51.670;5.624;2023-07-02T07:22:18;101124.47;;;23.11;47.96
63194;BME280;49289;51.670;5.624;2023-07-02T07:24:07;101109.79;;;23.44;46.49
63194;BME280;49289;51.670;5.624;2023-07-02T07:25:54;101120.02;;;22.47;47.32
63194;BME280;49289;51.670;5.624;2023-07-02T07:27:42;101116.47;;;21.79;49.02
63194;BME280;49289;51.670;5.624;2023-07-02T07:29:30;101139.98;;;22.10;49.12
63194;BME280;49289;51.670;5.624;2023-07-02T07:31:18;101140.30;;;21.88;49.36
63194;BME280;49289;51.670;5.624;2023-07-02T07:33:07;101119.43;;;22.40;48.79
63194;BME280;49289;51.670;5.624;2023-07-02T07:34:54;101142.95;;;21.78;49.58
63194;BME280;49289;51.670;5.624;2023-07-02T07:36:43;101117.04;;;22.00;49.19
63194;BME280;49289;51.670;5.624;2023-07-02T07:38:31;101123.94;;;22.42;48.89
63194;BME280;49289;51.670;5.624;2023-07-02T07:40:19;101144.44;;;23.17;47.48
63194;BME280;49289;51.670;5.624;2023-07-02T07:42:06;101123.52;;;22.73;47.67
63194;BME280;49289;51.670;5.624;2023-07-02T07:43:55;101144.40;;;23.52;46.69
63194;BME280;49289;51.670;5.624;2023-07-02T07:45:42;101147.23;;;22.93;47.01
63194;BME280;49289;51.670;5.624;2023-07-02T07:47:30;101151.87;;;23.02;48.45
63194;BME280;49289;51.670;5.624;2023-07-02T07:49:18;101149.49;;;23.12;47.65
63194;BME280;49289;51.670;5.624;2023-07-02T07:51:06;101123.56;;;22.91;47.95
63194;BME280;49289;51.670;5.624;2023-07-02T07:52:54;101146.79;;;22.72;48.68
63194;BME280;49289;51.670;5.624;2023-07-02T07:54:42;101145.52;;;23.06;46.97
63194;BME280;49289;51.670;5.624;2023-07-02T07:56:31;101149.80;;;23.74;45.75
63194;BME280;49289;51.670;5.624;2023-07-02T07:58:19;101150.23;;;22.70;46.97
63194;BME280;49289;51.670;5.624;2023-07-02T08:00:07;101141.74;;;23.19;46.83
63194;BME280;49289;51.670;5.624;2023-07-02T08:01:54;101153.53;;;23.26;45.62
63194;BME280;49289;51.670;5.624;2023-07-02T08:03:42;101124.27;;;22.42;46.34
63194;BME280;49289;51.670;5.624;2023-07-02T08:05:31;101147.55;;;23.16;45.42
63194;BME280;49289;51.670;5.624;2023-07-02T08:07:19;101149.91;;;23.40;46.10
63194;BME280;49289;51.670;5.624;2023-07-02T08:09:07;101157.52;;;23.60;44.69
63194;BME280;49289;51.670;5.624;2023-07-02T08:10:54;101154.20;;;22.91;45.03
63194;BME280;49289;51.670;5.624;2023-07-02T08:12:41;101158.20;;;23.28;44.66
63194;BME280;49289;51.670;5.624;2023-07-02T08:14:30;101159.52;;;22.68;42.22
63194;BME280;49289;51.670;5.624;2023-07-02T08:16:17;101164.37;;;23.16;41.23
63194;BME280;49289;51.670;5.624;2023-07-02T08:18:05;101167.12;;;22.04;43.54
63194;BME280;49289;51.670;5.624;2023-07-02T08:19:52;101162.05;;;22.08;44.31
63194;BME280;49289;51.670;5.624;2023-07-02T08:21:40;101145.37;;;22.43;44.29
63194;BME280;49289;51.670;5.624;2023-07-02T08:23:29;101175.18;;;23.14;44.18
63194;BME280;49289;51.670;5.624;2023-07-02T08:25:17;101149.88;;;22.74;45.06
63194;BME280;49289;51.670;5.624;2023-07-02T08:27:04;101148.23;;;22.95;44.90
63194;BME280;49289;51.670;5.624;2023-07-02T08:28:51;101171.75;;;23.32;43.89
63194;BME280;49289;51.670;5.624;2023-07-02T08:30:39;101177.05;;;22.39;44.37
63194;BME280;49289;51.670;5.624;2023-07-02T08:32:26;101119.01;;;22.72;43.39
63194;BME280;49289;51.670;5.624;2023-07-02T08:34:13;101174.56;;;23.24;42.42
63194;BME280;49289;51.670;5.624;2023-07-02T08:36:00;101172.05;;;23.06;41.97
63194;BME280;49289;51.670;5.624;2023-07-02T08:37:47;101178.48;;;22.89;43.58
63194;BME280;49289;51.670;5.624;2023-07-02T08:39:36;101179.66;;;22.88;44.04
63194;BME280;49289;51.670;5.624;2023-07-02T08:41:22;101188.02;;;22.74;43.39
63194;BME280;49289;51.670;5.624;2023-07-02T08:43:11;101178.91;;;23.26;42.60
63194;BME280;49289;51.670;5.624;2023-07-02T08:44:59;101185.84;;;23.10;42.27
63194;BME280;49289;51.670;5.624;2023-07-02T08:46:47;101193.39;;;22.62;43.70
63194;BME280;49289;51.670;5.624;2023-07-02T08:48:35;101165.66;;;22.05;43.25
63194;BME280;49289;51.670;5.624;2023-07-02T08:50:23;101167.01;;;22.50;42.71
63194;BME280;49289;51.670;5.624;2023-07-02T08:52:11;101194.05;;;22.72;42.37
63194;BME280;49289;51.670;5.624;2023-07-02T08:53:59;101175.48;;;22.86;41.80
63194;BME280;49289;51.670;5.624;2023-07-02T08:55:47;101202.18;;;23.21;40.51
63194;BME280;49289;51.670;5.624;2023-07-02T08:57:35;101178.73;;;22.76;41.44
63194;BME280;49289;51.670;5.624;2023-07-02T08:59:23;101199.28;;;22.54;41.59
63194;BME280;49289;51.670;5.624;2023-07-02T09:01:17;101203.23;;;22.77;41.77
63194;BME280;49289;51.670;5.624;2023-07-02T09:03:10;101196.89;;;22.75;41.78
63194;BME280;49289;51.670;5.624;2023-07-02T09:04:58;101204.69;;;22.72;41.99
63194;BME280;49289;51.670;5.624;2023-07-02T09:06:38;101205.98;;;22.39;42.47
63194;BME280;49289;51.670;5.624;2023-07-02T09:08:28;101199.64;;;22.48;43.01
63194;BME280;49289;51.670;5.624;2023-07-02T09:10:24;101207.92;;;22.92;42.59
63194;BME280;49289;51.670;5.624;2023-07-02T09:12:03;101204.58;;;23.31;42.09
63194;BME280;49289;51.670;5.624;2023-07-02T09:13:55;101199.67;;;22.84;42.52
63194;BME280;49289;51.670;5.624;2023-07-02T09:15:47;101206.62;;;23.07;42.31
63194;BME280;49289;51.670;5.624;2023-07-02T09:17:35;101194.08;;;23.24;42.00
63194;BME280;49289;51.670;5.624;2023-07-02T09:19:21;101196.13;;;23.13;42.61
63194;BME280;49289;51.670;5.624;2023-07-02T09:21:08;101205.79;;;23.58;41.24
63194;BME280;49289;51.670;5.624;2023-07-02T09:22:59;101199.44;;;23.23;40.95